Time,TemperatureF,DewpointF,PressureIn,WindDirection,WindDirectionDegrees,WindSpeedMPH,WindSpeedGustMPH,Humidity,HourlyPrecipIn,Conditions,Clouds,dailyrainin,SoftwareType,DateUTC
2013-07-12 00:10:00,50.0,48.0,30.02,West,261,0.0,-999.0,92,-99.99,,,0.00,weatherlink.com 1.10,2013-07-12 07:10:00,
2013-07-12 00:25:00,50.3,48.0,30.02,West,261,0.0,-999.0,92,-99.99,,,0.00,weatherlink.com 1.10,2013-07-12 07:25:00,
2013-07-12 00:40:00,50.0,48.0,30.02,West,261,0.0,-999.0,92,-99.99,,,0.00,weatherlink.com 1.10,2013-07-12 07:40:00,
2013-07-12 00:58:00,49.9,48.0,30.02,West,261,0.0,-999.0,92,-99.99,,,0.00,weatherlink.com 1.10,2013-07-12 07:58:00,
2013-07-12 01:10:00,49.9,48.0,30.02,West,261,0.0,-999.0,93,-99.99,,,0.00,weatherlink.com 1.10,2013-07-12 08:10:00,
2013-07-12 01:25:00,49.8,48.0,30.02,West,261,0.0,-999.0,92,-99.99,,,0.00,weatherlink.com 1.10,2013-07-12 08:25:00,
2013-07-12 01:40:00,49.8,48.0,30.02,West,261,0.0,-999.0,93,-99.99,,,0.00,weatherlink.com 1.10,2013-07-12 08:40:00,
2013-07-12 01:56:00,49.9,48.0,30.01,West,261,0.0,-999.0,93,-99.99,,,0.00,weatherlink.com 1.10,2013-07-12 08:56:00,
2013-07-12 02:10:00,50.6,49.0,30.01,West,261,0.0,-999.0,93,-99.99,,,0.00,weatherlink.com 1.10,2013-07-12 09:10:00,
2013-07-12 02:25:00,51.2,49.0,30.02,West,261,0.0,-999.0,93,-99.99,,,0.00,weatherlink.com 1.10,2013-07-12 09:25:00,
2013-07-12 02:40:00,51.4,50.0,30.02,West,261,0.0,-999.0,93,-99.99,,,0.00,weatherlink.com 1.10,2013-07-12 09:40:00,
2013-07-12 02:56:00,51.6,50.0,30.01,West,261,0.0,-999.0,93,-99.99,,,0.00,weatherlink.com 1.10,2013-07-12 09:56:00,
2013-07-12 03:10:00,52.1,50.0,30.01,West,261,0.0,-999.0,92,-99.99,,,0.00,weatherlink.com 1.10,2013-07-12 10:10:00,
2013-07-12 03:25:00,52.2,50.0,30.01,West,261,0.0,-999.0,92,-99.99,,,0.00,weatherlink.com 1.10,2013-07-12 10:25:00,
2013-07-12 03:40:00,52.1,50.0,30.01,West,261,0.0,-999.0,92,-99.99,,,0.00,weatherlink.com 1.10,2013-07-12 10:40:00,
2013-07-12 03:56:00,51.7,50.0,30.01,West,261,0.0,-999.0,92,-99.99,,,0.00,weatherlink.com 1.10,2013-07-12 10:56:00,
2013-07-12 04:10:00,51.1,49.0,30.01,West,261,2.0,-999.0,92,-99.99,,,0.00,weatherlink.com 1.10,2013-07-12 11:10:00,
2013-07-12 04:25:00,50.9,49.0,30.01,West,261,2.0,-999.0,93,-99.99,,,0.00,weatherlink.com 1.10,2013-07-12 11:25:00,
2013-07-12 04:40:00,50.6,49.0,30.01,West,261,1.0,-999.0,93,-99.99,,,0.00,weatherlink.com 1.10,2013-07-12 11:40:00,
2013-07-12 04:56:00,50.4,49.0,30.00,West,261,4.0,-999.0,93,-99.99,,,0.00,weatherlink.com 1.10,2013-07-12 11:56:00,
2013-07-12 05:11:00,49.4,48.0,30.00,WSW,248,3.0,-999.0,93,-99.99,,,0.00,weatherlink.com 1.10,2013-07-12 12:11:00,
2013-07-12 05:26:00,48.8,47.0,30.01,WSW,248,4.0,-999.0,94,-99.99,,,0.00,weatherlink.com 1.10,2013-07-12 12:26:00,
2013-07-12 05:41:00,49.0,48.0,30.00,WSW,248,4.0,-999.0,95,-99.99,,,0.00,weatherlink.com 1.10,2013-07-12 12:41:00,
2013-07-12 05:57:00,49.1,48.0,30.00,WSW,246,4.0,-999.0,95,-99.99,,,0.00,weatherlink.com 1.10,2013-07-12 12:57:00,
2013-07-12 06:10:00,48.5,47.0,30.01,WSW,246,3.0,-999.0,95,-99.99,,,0.00,weatherlink.com 1.10,2013-07-12 13:10:00,
2013-07-12 06:25:00,49.8,49.0,30.00,WSW,246,0.0,-999.0,96,-99.99,,,0.00,weatherlink.com 1.10,2013-07-12 13:25:00,
2013-07-12 06:40:00,50.9,50.0,30.00,WSW,246,0.0,-999.0,95,-99.99,,,0.00,weatherlink.com 1.10,2013-07-12 13:40:00,
2013-07-12 06:57:00,51.4,50.0,30.00,WSW,246,0.0,-999.0,94,-99.99,,,0.00,weatherlink.com 1.10,2013-07-12 13:57:00,
2013-07-12 07:10:00,52.0,50.0,30.01,WSW,246,0.0,-999.0,92,-99.99,,,0.00,weatherlink.com 1.10,2013-07-12 14:10:00,
2013-07-12 07:25:00,53.1,51.0,30.01,WSW,246,0.0,-999.0,92,-99.99,,,0.00,weatherlink.com 1.10,2013-07-12 14:25:00,
2013-07-12 07:40:00,53.9,51.0,30.01,WSW,246,0.0,-999.0,89,-99.99,,,0.00,weatherlink.com 1.10,2013-07-12 14:40:00,
2013-07-12 07:57:00,53.9,51.0,30.01,WSW,246,0.0,-999.0,89,-99.99,,,0.00,weatherlink.com 1.10,2013-07-12 14:57:00,
2013-07-12 08:10:00,54.8,51.0,30.00,WSW,246,0.0,-999.0,87,-99.99,,,0.00,weatherlink.com 1.10,2013-07-12 15:10:00,
2013-07-12 08:25:00,55.8,51.0,30.01,WSW,246,0.0,-999.0,85,-99.99,,,0.00,weatherlink.com 1.10,2013-07-12 15:25:00,
2013-07-12 08:40:00,56.7,52.0,30.01,WSW,246,0.0,-999.0,85,-99.99,,,0.00,weatherlink.com 1.10,2013-07-12 15:40:00,
2013-07-12 08:57:00,57.1,52.0,30.00,WSW,244,0.0,-999.0,83,-99.99,,,0.00,weatherlink.com 1.10,2013-07-12 15:57:00,
2013-07-12 09:10:00,56.8,52.0,30.01,SSE,165,0.0,-999.0,85,-99.99,,,0.00,weatherlink.com 1.10,2013-07-12 16:10:00,
2013-07-12 09:25:00,57.5,52.0,30.00,SE,146,0.0,-999.0,83,-99.99,,,0.00,weatherlink.com 1.10,2013-07-12 16:25:00,
2013-07-12 09:40:00,57.2,52.0,30.01,SE,146,0.0,-999.0,82,-99.99,,,0.00,weatherlink.com 1.10,2013-07-12 16:40:00,
2013-07-12 10:10:00,59.0,53.0,30.00,SE,137,1.0,-999.0,79,-99.99,,,0.00,weatherlink.com 1.10,2013-07-12 17:10:00,
2013-07-12 10:25:00,58.9,52.0,30.01,ESE,113,0.0,-999.0,79,-99.99,,,0.00,weatherlink.com 1.10,2013-07-12 17:25:00,
2013-07-12 10:40:00,57.2,52.0,30.01,ESE,110,1.0,-999.0,82,-99.99,,,0.00,weatherlink.com 1.10,2013-07-12 17:40:00,
2013-07-12 10:57:00,58.0,53.0,30.01,ESE,111,3.0,-999.0,82,-99.99,,,0.00,weatherlink.com 1.10,2013-07-12 17:57:00,
2013-07-12 11:10:00,56.7,52.0,30.01,South,175,6.0,-999.0,83,-99.99,,,0.00,weatherlink.com 1.10,2013-07-12 18:10:00,
2013-07-12 11:40:00,56.5,52.0,30.01,SSE,150,1.0,-999.0,84,-99.99,,,0.00,weatherlink.com 1.10,2013-07-12 18:40:00,
2013-07-12 11:58:00,57.3,52.0,30.01,NNE,24,6.0,-999.0,83,-99.99,,,0.00,weatherlink.com 1.10,2013-07-12 18:58:00,
2013-07-12 12:11:00,60.0,52.0,30.02,NNE,18,8.0,-999.0,76,-99.99,,,0.00,weatherlink.com 1.10,2013-07-12 19:11:00,
2013-07-12 12:26:00,60.0,52.0,30.02,NE,43,4.0,-999.0,76,-99.99,,,0.00,weatherlink.com 1.10,2013-07-12 19:26:00,
2013-07-12 12:41:00,60.7,53.0,30.03,NNE,28,2.0,-999.0,76,-99.99,,,0.00,weatherlink.com 1.10,2013-07-12 19:41:00,
2013-07-12 12:57:00,60.6,52.0,30.02,North,5,11.0,-999.0,74,-99.99,,,0.00,weatherlink.com 1.10,2013-07-12 19:57:00,
2013-07-12 13:10:00,57.3,52.0,30.03,NNE,28,10.0,-999.0,83,-99.99,,,0.00,weatherlink.com 1.10,2013-07-12 20:10:00,
2013-07-12 13:25:00,57.7,53.0,30.03,NE,44,9.0,-999.0,84,-99.99,,,0.00,weatherlink.com 1.10,2013-07-12 20:25:00,
2013-07-12 13:40:00,57.3,53.0,30.03,NE,41,3.0,-999.0,86,-99.99,,,0.00,weatherlink.com 1.10,2013-07-12 20:40:00,
2013-07-12 13:57:00,58.3,54.0,30.03,SSE,163,4.0,-999.0,85,-99.99,,,0.00,weatherlink.com 1.10,2013-07-12 20:57:00,
2013-07-12 14:26:00,59.6,54.0,30.03,NE,46,17.0,-999.0,81,-99.99,,,0.00,weatherlink.com 1.10,2013-07-12 21:26:00,
2013-07-12 14:41:00,60.9,54.0,30.03,NNE,26,6.0,-999.0,79,-99.99,,,0.00,weatherlink.com 1.10,2013-07-12 21:41:00,
2013-07-12 15:10:00,59.8,54.0,30.03,North,5,3.0,-999.0,81,-99.99,,,0.00,weatherlink.com 1.10,2013-07-12 22:10:00,
2013-07-12 15:25:00,60.3,54.0,30.04,WNW,290,9.0,-999.0,80,-99.99,,,0.00,weatherlink.com 1.10,2013-07-12 22:25:00,
2013-07-12 15:40:00,60.4,54.0,30.03,NNW,333,7.0,-999.0,79,-99.99,,,0.00,weatherlink.com 1.10,2013-07-12 22:40:00,
2013-07-12 16:26:00,63.0,53.0,30.03,NNE,17,6.0,-999.0,71,-99.99,,,0.00,weatherlink.com 1.10,2013-07-12 23:26:00,
2013-07-12 16:41:00,61.8,53.0,30.04,NW,321,3.0,-999.0,73,-99.99,,,0.00,weatherlink.com 1.10,2013-07-12 23:41:00,
2013-07-12 16:58:00,62.0,52.0,30.04,NNW,346,2.0,-999.0,71,-99.99,,,0.00,weatherlink.com 1.10,2013-07-12 23:58:00,
2013-07-12 17:11:00,62.1,53.0,30.04,NNW,346,2.0,-999.0,72,-99.99,,,0.00,weatherlink.com 1.10,2013-07-13 00:11:00,
2013-07-12 17:26:00,61.7,53.0,30.04,North,11,16.0,-999.0,72,-99.99,,,0.00,weatherlink.com 1.10,2013-07-13 00:26:00,
2013-07-12 17:41:00,60.9,52.0,30.04,WNW,299,0.0,-999.0,73,-99.99,,,0.00,weatherlink.com 1.10,2013-07-13 00:41:00,
2013-07-12 17:57:00,60.2,52.0,30.05,North,360,4.0,-999.0,75,-99.99,,,0.00,weatherlink.com 1.10,2013-07-13 00:57:00,
2013-07-12 18:11:00,60.4,51.0,30.05,North,355,4.0,-999.0,72,-99.99,,,0.00,weatherlink.com 1.10,2013-07-13 01:11:00,
2013-07-12 18:26:00,60.5,51.0,30.05,NNE,24,5.0,-999.0,71,-99.99,,,0.00,weatherlink.com 1.10,2013-07-13 01:26:00,
2013-07-12 18:41:00,60.3,51.0,30.05,NNE,15,4.0,-999.0,71,-99.99,,,0.00,weatherlink.com 1.10,2013-07-13 01:41:00,
2013-07-12 18:57:00,60.1,51.0,30.05,North,355,10.0,-999.0,72,-99.99,,,0.00,weatherlink.com 1.10,2013-07-13 01:57:00,
2013-07-12 19:11:00,59.9,50.0,30.06,North,10,0.0,-999.0,71,-99.99,,,0.00,weatherlink.com 1.10,2013-07-13 02:11:00,
2013-07-12 19:26:00,59.4,50.0,30.06,North,5,7.0,-999.0,71,-99.99,,,0.00,weatherlink.com 1.10,2013-07-13 02:26:00,
2013-07-12 19:41:00,58.6,50.0,30.06,North,351,0.0,-999.0,74,-99.99,,,0.00,weatherlink.com 1.10,2013-07-13 02:41:00,
2013-07-12 19:56:00,57.8,50.0,30.07,North,355,1.0,-999.0,76,-99.99,,,0.00,weatherlink.com 1.10,2013-07-13 02:56:00,
2013-07-12 20:11:00,57.6,50.0,30.07,NW,309,0.0,-999.0,75,-99.99,,,0.00,weatherlink.com 1.10,2013-07-13 03:11:00,
2013-07-12 20:26:00,58.0,50.0,30.07,West,277,2.0,-999.0,74,-99.99,,,0.00,weatherlink.com 1.10,2013-07-13 03:26:00,
2013-07-12 20:56:00,57.3,49.0,30.08,SSW,212,0.0,-999.0,75,-99.99,,,0.00,weatherlink.com 1.10,2013-07-13 03:56:00,
2013-07-12 21:11:00,56.4,49.0,30.07,WNW,285,0.0,-999.0,77,-99.99,,,0.00,weatherlink.com 1.10,2013-07-13 04:11:00,
2013-07-12 21:26:00,55.6,50.0,30.08,NNE,16,0.0,-999.0,80,-99.99,,,0.00,weatherlink.com 1.10,2013-07-13 04:26:00,
2013-07-12 21:41:00,55.0,50.0,30.08,NNE,28,0.0,-999.0,82,-99.99,,,0.00,weatherlink.com 1.10,2013-07-13 04:41:00,
2013-07-12 21:56:00,54.5,50.0,30.08,North,11,0.0,-999.0,84,-99.99,,,0.00,weatherlink.com 1.10,2013-07-13 04:56:00,
2013-07-12 22:11:00,54.2,50.0,30.08,NW,313,0.0,-999.0,85,-99.99,,,0.00,weatherlink.com 1.10,2013-07-13 05:11:00,
2013-07-12 22:26:00,54.0,50.0,30.09,WNW,296,0.0,-999.0,86,-99.99,,,0.00,weatherlink.com 1.10,2013-07-13 05:26:00,
2013-07-12 22:41:00,54.0,50.0,30.09,WNW,298,0.0,-999.0,86,-99.99,,,0.00,weatherlink.com 1.10,2013-07-13 05:41:00,
2013-07-12 22:56:00,53.4,50.0,30.09,WNW,300,4.0,-999.0,87,-99.99,,,0.00,weatherlink.com 1.10,2013-07-13 05:56:00,
2013-07-12 23:11:00,53.3,50.0,30.09,WNW,292,0.0,-999.0,88,-99.99,,,0.00,weatherlink.com 1.10,2013-07-13 06:11:00,
2013-07-12 23:26:00,53.0,50.0,30.09,West,281,0.0,-999.0,89,-99.99,,,0.00,weatherlink.com 1.10,2013-07-13 06:26:00,
2013-07-12 23:42:00,52.8,50.0,30.10,WSW,240,0.0,-999.0,89,-99.99,,,0.00,weatherlink.com 1.10,2013-07-13 06:42:00,
2013-07-12 23:57:00,52.6,50.0,30.10,West,268,0.0,-999.0,89,-99.99,,,0.00,weatherlink.com 1.10,2013-07-13 06:57:00,